Kalamazoo, MI (49007)

10:28 AM EDT on September 02, 2014 (GMT -0400)
Westwood | Change Station
CLOSE
Current Station
Personal Weather Station
Location: Kalamazoo, MI
Elevation: 955 ft
Nearby Weather Stations

Elev 955 ft 42.30 °N, 85.62 °W | Updated 4 seconds ago

Scattered Clouds
Scattered Clouds
72.5 °F
Feels Like 75 °F
N
0.0
Wind Variable Wind from NE
Gusts 1.1 mph

Today
High -- | Low -- °F
--% Chance of Precip.
Yesterday
High -- | Low -- °F
Precip. -- in
7:08 AM 8:14 PM
First Quarter, 52% visible
Pressure 29.89 in
Visibility 10.0 miles
Clouds Few 1500 ft
Scattered Clouds 2200 ft
Scattered Clouds 2700 ft
Heat Index 75 °F
Dew Point 63 °F
Humidity 71%
Rainfall 0.00 in
Snow Depth Not available.
UV 3 out of 12
Pollen 8.90 out of 12
Ozone Good
PM2.5 Good
Flu Activity Not available.
SPECI KAZO 021423Z 31005KT 10SM FEW015 SCT022 SCT027 23/18 A2989 RMK AO2 T02330178

More Conditions Fewer Conditions

Pressure 29.89 in
Visibility 10.0 miles
Clouds Few 1500 ft
Scattered Clouds 2200 ft
Scattered Clouds 2700 ft
Heat Index 75 °F
Dew Point 63 °F
Humidity 71%
Rainfall 0.00 in
Snow Depth Not available.
UV 3 out of 12
Pollen 8.90 out of 12
Ozone Good
PM2.5 Good
Flu Activity Not available.
SPECI KAZO 021423Z 31005KT 10SM FEW015 SCT022 SCT027 23/18 A2989 RMK AO2 T02330178

More Conditions Fewer Conditions

10-Day Weather Forecast

Almanac

Astronomy

Sep. 02, 2014 Rise Set
Actual Time 7:08 AM EDT 8:14 PM EDT
Civil Twilight 6:39 AM EDT 8:43 PM EDT
Nautical Twilight 6:05 AM EDT 9:17 PM EDT
Astronomical Twilight 5:29 AM EDT 9:53 PM EDT
Moon 3:00 PM EDT 12:09 AM EDT
Length of Visible Light 14h 03m
Length of Day
13h 05m
Tomorrow will be 2m 45s shorter.
First Quarter, 52% of the Moon is Illuminated
Today
First Quarter
Sep 8
Full
Sep 15
Last Quarter
Sep 24
New
Oct 1
First Quarter

Today's Extremes

State Highs State Lows

Community

WunderPhotos

Upload Photos

1,749,677 photos uploaded!

Nearby

Air Quality

  Air Quality AQ Index Pollutant
Yesterday Good
PM2.5
Yesterday Good
OZONE
Current Good
PM2.5
Current Good
OZONE
Tuesday Good
OZONE
Tuesday Good
PM2.5

Snow Depth

Station Depth Elevation
No new snow has been reported.

Earthquake Activity

City Distance Mag. Time & Date
No recent earthquake activity has been reported nearby.
Minimum magnitude displayed is 2.5.

Coastal Water Temperatures

Place Temperature
No Stations Reporting

Nearby Weather Stations